sensor_id;sensor_type;location;lat;lon;timestamp;temperature;humidity
23081;DHT22;11708;50.570;8.532;2023-04-28T00:00:24;11.40;99.90
23081;DHT22;11708;50.570;8.532;2023-04-28T00:02:49;11.40;99.90
23081;DHT22;11708;50.570;8.532;2023-04-28T00:05:16;11.50;99.90
23081;DHT22;11708;50.570;8.532;2023-04-28T00:07:42;11.30;99.90
23081;DHT22;11708;50.570;8.532;2023-04-28T00:10:08;11.30;99.90
23081;DHT22;11708;50.570;8.532;2023-04-28T00:12:33;11.30;99.90
23081;DHT22;11708;50.570;8.532;2023-04-28T00:14:59;11.20;99.90
23081;DHT22;11708;50.570;8.532;2023-04-28T00:17:25;11.30;99.90
23081;DHT22;11708;50.570;8.532;2023-04-28T00:19:50;11.30;99.90
23081;DHT22;11708;50.570;8.532;2023-04-28T00:22:17;11.20;99.90
23081;DHT22;11708;50.570;8.532;2023-04-28T00:24:43;11.20;99.90
23081;DHT22;11708;50.570;8.532;2023-04-28T00:27:09;11.20;99.90
23081;DHT22;11708;50.570;8.532;2023-04-28T00:29:34;11.20;99.90
23081;DHT22;11708;50.570;8.532;2023-04-28T00:32:01;11.20;99.90
23081;DHT22;11708;50.570;8.532;2023-04-28T00:34:27;11.20;99.90
23081;DHT22;11708;50.570;8.532;2023-04-28T00:36:54;11.20;99.90
23081;DHT22;11708;50.570;8.532;2023-04-28T00:39:20;11.20;99.90
23081;DHT22;11708;50.570;8.532;2023-04-28T00:41:47;11.20;99.90
23081;DHT22;11708;50.570;8.532;2023-04-28T00:44:13;11.10;99.90
23081;DHT22;11708;50.570;8.532;2023-04-28T00:46:38;11.10;99.90
23081;DHT22;11708;50.570;8.532;2023-04-28T00:49:04;11.10;99.90
23081;DHT22;11708;50.570;8.532;2023-04-28T00:51:30;11.10;99.90
23081;DHT22;11708;50.570;8.532;2023-04-28T00:53:58;11.10;99.90
23081;DHT22;11708;50.570;8.532;2023-04-28T00:56:23;11.00;99.90
23081;DHT22;11708;50.570;8.532;2023-04-28T00:58:52;11.00;99.90
23081;DHT22;11708;50.570;8.532;2023-04-28T01:01:17;11.00;99.90
23081;DHT22;11708;50.570;8.532;2023-04-28T01:03:43;11.00;99.90
23081;DHT22;11708;50.570;8.532;2023-04-28T01:06:09;11.00;99.90
23081;DHT22;11708;50.570;8.532;2023-04-28T01:08:36;11.00;99.90
23081;DHT22;11708;50.570;8.532;2023-04-28T01:11:02;11.00;99.90
23081;DHT22;11708;50.570;8.532;2023-04-28T01:13:28;11.00;99.90
23081;DHT22;11708;50.570;8.532;2023-04-28T01:15:54;11.00;99.90
23081;DHT22;11708;50.570;8.532;2023-04-28T01:18:20;10.90;99.90
23081;DHT22;11708;50.570;8.532;2023-04-28T01:20:46;11.00;99.90
23081;DHT22;11708;50.570;8.532;2023-04-28T01:23:15;10.90;99.90
23081;DHT22;11708;50.570;8.532;2023-04-28T01:25:42;10.90;99.90
23081;DHT22;11708;50.570;8.532;2023-04-28T01:28:09;10.90;99.90
23081;DHT22;11708;50.570;8.532;2023-04-28T01:30:34;10.90;99.90
23081;DHT22;11708;50.570;8.532;2023-04-28T01:33:00;10.90;99.90
23081;DHT22;11708;50.570;8.532;2023-04-28T01:35:26;10.90;99.90
23081;DHT22;11708;50.570;8.532;2023-04-28T01:37:52;10.90;99.90
23081;DHT22;11708;50.570;8.532;2023-04-28T01:40:17;10.90;99.90
23081;DHT22;11708;50.570;8.532;2023-04-28T01:42:43;10.90;99.90
23081;DHT22;11708;50.570;8.532;2023-04-28T01:45:09;10.80;99.90
23081;DHT22;11708;50.570;8.532;2023-04-28T01:47:35;10.90;99.90
23081;DHT22;11708;50.570;8.532;2023-04-28T01:50:00;10.90;99.90
23081;DHT22;11708;50.570;8.532;2023-04-28T01:52:26;10.80;99.90
23081;DHT22;11708;50.570;8.532;2023-04-28T01:54:53;10.90;99.90
23081;DHT22;11708;50.570;8.532;2023-04-28T01:57:18;10.80;99.90
23081;DHT22;11708;50.570;8.532;2023-04-28T01:59:44;10.80;99.90
23081;DHT22;11708;50.570;8.532;2023-04-28T02:02:10;10.80;99.90
23081;DHT22;11708;50.570;8.532;2023-04-28T02:04:37;10.80;99.90
23081;DHT22;11708;50.570;8.532;2023-04-28T02:07:03;10.80;99.90
23081;DHT22;11708;50.570;8.532;2023-04-28T02:09:28;10.80;99.90
23081;DHT22;11708;50.570;8.532;2023-04-28T02:11:54;10.80;99.90
23081;DHT22;11708;50.570;8.532;2023-04-28T02:14:19;10.70;99.90
23081;DHT22;11708;50.570;8.532;2023-04-28T02:16:45;10.70;99.90
23081;DHT22;11708;50.570;8.532;2023-04-28T02:19:10;10.70;99.90
23081;DHT22;11708;50.570;8.532;2023-04-28T02:21:36;10.70;99.90
23081;DHT22;11708;50.570;8.532;2023-04-28T02:24:01;10.60;99.90
23081;DHT22;11708;50.570;8.532;2023-04-28T02:26:27;10.70;99.90
23081;DHT22;11708;50.570;8.532;2023-04-28T02:28:53;10.70;99.90
23081;DHT22;11708;50.570;8.532;2023-04-28T02:31:18;10.60;99.90
23081;DHT22;11708;50.570;8.532;2023-04-28T02:33:44;10.60;99.90
23081;DHT22;11708;50.570;8.532;2023-04-28T02:36:10;10.60;99.90
23081;DHT22;11708;50.570;8.532;2023-04-28T02:38:35;10.60;99.90
23081;DHT22;11708;50.570;8.532;2023-04-28T02:41:05;10.60;99.90
23081;DHT22;11708;50.570;8.532;2023-04-28T02:43:32;10.60;99.90
23081;DHT22;11708;50.570;8.532;2023-04-28T02:45:58;10.50;99.90
23081;DHT22;11708;50.570;8.532;2023-04-28T02:48:24;10.50;99.90
23081;DHT22;11708;50.570;8.532;2023-04-28T02:50:50;10.40;99.90
23081;DHT22;11708;50.570;8.532;2023-04-28T02:53:15;10.40;99.90
23081;DHT22;11708;50.570;8.532;2023-04-28T02:55:41;10.30;99.90
23081;DHT22;11708;50.570;8.532;2023-04-28T02:58:07;10.30;99.90
23081;DHT22;11708;50.570;8.532;2023-04-28T03:00:32;10.30;99.90
23081;DHT22;11708;50.570;8.532;2023-04-28T03:02:58;10.30;99.90
23081;DHT22;11708;50.570;8.532;2023-04-28T03:05:23;10.30;99.90
23081;DHT22;11708;50.570;8.532;2023-04-28T03:07:49;10.30;99.90
23081;DHT22;11708;50.570;8.532;2023-04-28T03:10:15;10.30;99.90
23081;DHT22;11708;50.570;8.532;2023-04-28T03:12:40;10.30;99.90
23081;DHT22;11708;50.570;8.532;2023-04-28T03:15:06;10.10;99.90
23081;DHT22;11708;50.570;8.532;2023-04-28T03:17:35;10.30;99.90
23081;DHT22;11708;50.570;8.532;2023-04-28T03:20:03;10.30;99.90
23081;DHT22;11708;50.570;8.532;2023-04-28T03:22:29;10.30;99.90
23081;DHT22;11708;50.570;8.532;2023-04-28T03:24:55;10.30;99.90
23081;DHT22;11708;50.570;8.532;2023-04-28T03:27:22;10.20;99.90
23081;DHT22;11708;50.570;8.532;2023-04-28T03:29:47;10.20;99.90
23081;DHT22;11708;50.570;8.532;2023-04-28T03:32:13;10.20;99.90
23081;DHT22;11708;50.570;8.532;2023-04-28T03:34:38;10.20;99.90
23081;DHT22;11708;50.570;8.532;2023-04-28T03:37:04;10.20;99.90
23081;DHT22;11708;50.570;8.532;2023-04-28T03:39:30;10.20;99.90
23081;DHT22;11708;50.570;8.532;2023-04-28T03:41:55;10.10;99.90
23081;DHT22;11708;50.570;8.532;2023-04-28T03:44:21;10.20;99.90
23081;DHT22;11708;50.570;8.532;2023-04-28T03:46:48;10.20;99.90
23081;DHT22;11708;50.570;8.532;2023-04-28T03:49:13;10.20;99.90
23081;DHT22;11708;50.570;8.532;2023-04-28T03:51:39;10.20;99.90
23081;DHT22;11708;50.570;8.532;2023-04-28T03:54:05;10.10;99.90
23081;DHT22;11708;50.570;8.532;2023-04-28T03:56:30;10.10;99.90
23081;DHT22;11708;50.570;8.532;2023-04-28T03:58:56;10.10;99.90
23081;DHT22;11708;50.570;8.532;2023-04-28T04:01:21;10.10;99.90
23081;DHT22;11708;50.570;8.532;2023-04-28T04:03:47;10.10;99.90
23081;DHT22;11708;50.570;8.532;2023-04-28T04:06:13;10.00;99.90
23081;DHT22;11708;50.570;8.532;2023-04-28T04:08:39;10.10;99.90
23081;DHT22;11708;50.570;8.532;2023-04-28T04:11:05;10.00;99.90
23081;DHT22;11708;50.570;8.532;2023-04-28T04:13:30;10.10;99.90
23081;DHT22;11708;50.570;8.532;2023-04-28T04:15:56;10.10;99.90
23081;DHT22;11708;50.570;8.532;2023-04-28T04:18:21;10.00;99.90
23081;DHT22;11708;50.570;8.532;2023-04-28T04:20:47;10.00;99.90
23081;DHT22;11708;50.570;8.532;2023-04-28T04:23:14;10.00;99.90
23081;DHT22;11708;50.570;8.532;2023-04-28T04:25:39;10.00;99.90
23081;DHT22;11708;50.570;8.532;2023-04-28T04:28:05;10.00;99.90
23081;DHT22;11708;50.570;8.532;2023-04-28T04:30:31;10.00;99.90
23081;DHT22;11708;50.570;8.532;2023-04-28T04:32:56;10.00;99.90
23081;DHT22;11708;50.570;8.532;2023-04-28T04:35:22;10.00;99.90
23081;DHT22;11708;50.570;8.532;2023-04-28T04:37:47;10.00;99.90
23081;DHT22;11708;50.570;8.532;2023-04-28T04:40:13;10.00;99.90
23081;DHT22;11708;50.570;8.532;2023-04-28T04:42:38;10.00;99.90
23081;DHT22;11708;50.570;8.532;2023-04-28T04:45:04;10.10;99.90
23081;DHT22;11708;50.570;8.532;2023-04-28T04:47:30;10.00;99.90
23081;DHT22;11708;50.570;8.532;2023-04-28T04:49:56;10.00;99.90
23081;DHT22;11708;50.570;8.532;2023-04-28T04:52:22;10.00;99.90
23081;DHT22;11708;50.570;8.532;2023-04-28T04:54:47;10.00;99.90
23081;DHT22;11708;50.570;8.532;2023-04-28T04:57:13;9.90;99.90
23081;DHT22;11708;50.570;8.532;2023-04-28T04:59:40;9.90;99.90
23081;DHT22;11708;50.570;8.532;2023-04-28T05:02:05;9.90;99.90
23081;DHT22;11708;50.570;8.532;2023-04-28T05:04:31;9.90;99.90
23081;DHT22;11708;50.570;8.532;2023-04-28T05:06:56;9.90;99.90
23081;DHT22;11708;50.570;8.532;2023-04-28T05:09:22;9.90;99.90
23081;DHT22;11708;50.570;8.532;2023-04-28T05:11:47;9.80;99.90
23081;DHT22;11708;50.570;8.532;2023-04-28T05:14:13;9.80;99.90
23081;DHT22;11708;50.570;8.532;2023-04-28T05:16:40;9.80;99.90
23081;DHT22;11708;50.570;8.532;2023-04-28T05:19:06;9.80;99.90
23081;DHT22;11708;50.570;8.532;2023-04-28T05:21:31;9.80;99.90
23081;DHT22;11708;50.570;8.532;2023-04-28T05:23:57;9.80;99.90
23081;DHT22;11708;50.570;8.532;2023-04-28T05:26:23;9.80;99.90
23081;DHT22;11708;50.570;8.532;2023-04-28T05:28:48;9.90;99.90
23081;DHT22;11708;50.570;8.532;2023-04-28T05:31:14;9.90;99.90
23081;DHT22;11708;50.570;8.532;2023-04-28T05:33:40;9.90;99.90
23081;DHT22;11708;50.570;8.532;2023-04-28T05:36:06;9.90;99.90
23081;DHT22;11708;50.570;8.532;2023-04-28T05:38:32;9.90;99.90
23081;DHT22;11708;50.570;8.532;2023-04-28T05:40:59;9.90;99.90
23081;DHT22;11708;50.570;8.532;2023-04-28T05:43:25;10.00;99.90
23081;DHT22;11708;50.570;8.532;2023-04-28T05:45:51;10.00;99.90
23081;DHT22;11708;50.570;8.532;2023-04-28T05:48:17;10.10;99.90
23081;DHT22;11708;50.570;8.532;2023-04-28T05:50:42;10.10;99.90
23081;DHT22;11708;50.570;8.532;2023-04-28T05:53:08;10.10;99.90
23081;DHT22;11708;50.570;8.532;2023-04-28T05:55:34;10.20;99.90
23081;DHT22;11708;50.570;8.532;2023-04-28T05:58:04;10.20;99.90
23081;DHT22;11708;50.570;8.532;2023-04-28T06:00:29;10.20;99.90
23081;DHT22;11708;50.570;8.532;2023-04-28T06:02:55;10.20;99.90
23081;DHT22;11708;50.570;8.532;2023-04-28T06:05:21;10.20;99.90
23081;DHT22;11708;50.570;8.532;2023-04-28T06:07:47;10.20;99.90
23081;DHT22;11708;50.570;8.532;2023-04-28T06:10:13;10.20;99.90
23081;DHT22;11708;50.570;8.532;2023-04-28T06:12:38;10.10;99.90
23081;DHT22;11708;50.570;8.532;2023-04-28T06:15:05;10.20;99.90
23081;DHT22;11708;50.570;8.532;2023-04-28T06:17:32;10.10;99.90
23081;DHT22;11708;50.570;8.532;2023-04-28T06:19:58;10.10;99.90
23081;DHT22;11708;50.570;8.532;2023-04-28T06:22:27;10.10;99.90
23081;DHT22;11708;50.570;8.532;2023-04-28T06:24:52;10.10;99.90
23081;DHT22;11708;50.570;8.532;2023-04-28T06:27:18;10.00;99.90
23081;DHT22;11708;50.570;8.532;2023-04-28T06:29:44;10.00;99.90
23081;DHT22;11708;50.570;8.532;2023-04-28T06:32:09;10.00;99.90
23081;DHT22;11708;50.570;8.532;2023-04-28T06:34:36;10.00;99.90
23081;DHT22;11708;50.570;8.532;2023-04-28T06:37:01;10.00;99.90
23081;DHT22;11708;50.570;8.532;2023-04-28T06:39:27;10.00;99.90
23081;DHT22;11708;50.570;8.532;2023-04-28T06:41:52;9.90;99.90
23081;DHT22;11708;50.570;8.532;2023-04-28T06:44:18;9.90;99.90
23081;DHT22;11708;50.570;8.532;2023-04-28T06:46:44;10.30;99.90
23081;DHT22;11708;50.570;8.532;2023-04-28T06:49:09;10.00;99.90
23081;DHT22;11708;50.570;8.532;2023-04-28T06:51:35;10.00;99.90
23081;DHT22;11708;50.570;8.532;2023-04-28T06:54:01;10.00;99.90
23081;DHT22;11708;50.570;8.532;2023-04-28T06:56:27;10.00;99.90
23081;DHT22;11708;50.570;8.532;2023-04-28T06:58:54;10.00;99.90
23081;DHT22;11708;50.570;8.532;2023-04-28T07:01:20;10.00;99.90
23081;DHT22;11708;50.570;8.532;2023-04-28T07:03:46;9.90;99.90
23081;DHT22;11708;50.570;8.532;2023-04-28T07:06:12;9.90;99.90
23081;DHT22;11708;50.570;8.532;2023-04-28T07:08:38;9.90;99.90
23081;DHT22;11708;50.570;8.532;2023-04-28T07:11:03;9.90;99.90
23081;DHT22;11708;50.570;8.532;2023-04-28T07:13:30;10.00;99.90
23081;DHT22;11708;50.570;8.532;2023-04-28T07:15:56;10.00;99.90
23081;DHT22;11708;50.570;8.532;2023-04-28T07:18:22;10.10;99.90
23081;DHT22;11708;50.570;8.532;2023-04-28T07:20:47;10.10;99.90
23081;DHT22;11708;50.570;8.532;2023-04-28T07:23:13;10.20;99.90
23081;DHT22;11708;50.570;8.532;2023-04-28T07:25:39;10.20;99.90
23081;DHT22;11708;50.570;8.532;2023-04-28T07:28:08;10.20;99.90
23081;DHT22;11708;50.570;8.532;2023-04-28T07:30:33;10.20;99.90
23081;DHT22;11708;50.570;8.532;2023-04-28T07:32:59;10.20;99.90
23081;DHT22;11708;50.570;8.532;2023-04-28T07:35:25;10.20;99.90
23081;DHT22;11708;50.570;8.532;2023-04-28T07:37:51;10.20;99.90
23081;DHT22;11708;50.570;8.532;2023-04-28T07:40:19;10.20;99.90
23081;DHT22;11708;50.570;8.532;2023-04-28T07:42:44;10.20;99.90
23081;DHT22;11708;50.570;8.532;2023-04-28T07:45:10;10.10;99.90
23081;DHT22;11708;50.570;8.532;2023-04-28T07:47:36;10.10;99.90
23081;DHT22;11708;50.570;8.532;2023-04-28T07:50:03;10.10;99.90
23081;DHT22;11708;50.570;8.532;2023-04-28T07:52:30;10.10;99.90
23081;DHT22;11708;50.570;8.532;2023-04-28T07:54:56;10.10;99.90
23081;DHT22;11708;50.570;8.532;2023-04-28T07:57:21;10.10;99.90
23081;DHT22;11708;50.570;8.532;2023-04-28T07:59:47;10.20;99.90
23081;DHT22;11708;50.570;8.532;2023-04-28T08:02:14;10.20;99.90
23081;DHT22;11708;50.570;8.532;2023-04-28T08:04:40;10.30;99.90
23081;DHT22;11708;50.570;8.532;2023-04-28T08:07:05;10.30;99.90
23081;DHT22;11708;50.570;8.532;2023-04-28T08:09:31;10.30;99.90
23081;DHT22;11708;50.570;8.532;2023-04-28T08:11:57;10.40;99.90
23081;DHT22;11708;50.570;8.532;2023-04-28T08:14:23;10.40;99.90
23081;DHT22;11708;50.570;8.532;2023-04-28T08:16:49;10.50;99.90
23081;DHT22;11708;50.570;8.532;2023-04-28T08:19:14;10.60;99.90
23081;DHT22;11708;50.570;8.532;2023-04-28T08:21:40;10.70;99.90
23081;DHT22;11708;50.570;8.532;2023-04-28T08:24:06;10.70;99.90
23081;DHT22;11708;50.570;8.532;2023-04-28T08:26:32;10.80;99.90
23081;DHT22;11708;50.570;8.532;2023-04-28T08:28:58;10.80;99.90
23081;DHT22;11708;50.570;8.532;2023-04-28T08:31:24;11.00;99.90
23081;DHT22;11708;50.570;8.532;2023-04-28T08:33:49;11.00;99.90
23081;DHT22;11708;50.570;8.532;2023-04-28T08:36:16;11.10;99.90
23081;DHT22;11708;50.570;8.532;2023-04-28T08:38:42;11.10;99.90
23081;DHT22;11708;50.570;8.532;2023-04-28T08:41:09;11.10;99.90
23081;DHT22;11708;50.570;8.532;2023-04-28T08:43:35;11.30;99.90
23081;DHT22;11708;50.570;8.532;2023-04-28T08:46:05;11.40;99.90
23081;DHT22;11708;50.570;8.532;2023-04-28T08:48:38;11.50;99.90
23081;DHT22;11708;50.570;8.532;2023-04-28T08:51:05;11.50;99.90
23081;DHT22;11708;50.570;8.532;2023-04-28T08:53:36;11.60;99.90
23081;DHT22;11708;50.570;8.532;2023-04-28T08:56:04;11.70;99.90
23081;DHT22;11708;50.570;8.532;2023-04-28T08:58:30;11.70;99.90
23081;DHT22;11708;50.570;8.532;2023-04-28T09:00:56;11.70;99.90
23081;DHT22;11708;50.570;8.532;2023-04-28T09:03:21;11.70;99.90
23081;DHT22;11708;50.570;8.532;2023-04-28T09:05:47;11.80;99.90
23081;DHT22;11708;50.570;8.532;2023-04-28T09:08:13;11.80;99.90
23081;DHT22;11708;50.570;8.532;2023-04-28T09:10:39;11.80;99.90
23081;DHT22;11708;50.570;8.532;2023-04-28T09:13:05;11.90;99.90
23081;DHT22;11708;50.570;8.532;2023-04-28T09:15:34;11.90;99.90
23081;DHT22;11708;50.570;8.532;2023-04-28T09:18:02;11.90;99.90
23081;DHT22;11708;50.570;8.532;2023-04-28T09:20:29;11.90;99.90
23081;DHT22;11708;50.570;8.532;2023-04-28T09:22:56;11.80;99.90
23081;DHT22;11708;50.570;8.532;2023-04-28T09:25:36;11.80;99.90
23081;DHT22;11708;50.570;8.532;2023-04-28T09:28:18;11.80;99.90
23081;DHT22;11708;50.570;8.532;2023-04-28T09:30:45;11.80;99.90
23081;DHT22;11708;50.570;8.532;2023-04-28T09:33:10;11.80;99.90
23081;DHT22;11708;50.570;8.532;2023-04-28T09:35:40;11.80;99.90
23081;DHT22;11708;50.570;8.532;2023-04-28T09:38:06;11.80;99.90
23081;DHT22;11708;50.570;8.532;2023-04-28T09:40:31;11.80;99.90
23081;DHT22;11708;50.570;8.532;2023-04-28T09:42:58;11.80;99.90
23081;DHT22;11708;50.570;8.532;2023-04-28T09:45:24;11.80;99.90
23081;DHT22;11708;50.570;8.532;2023-04-28T09:47:50;11.80;99.90
23081;DHT22;11708;50.570;8.532;2023-04-28T09:50:16;11.80;99.90
23081;DHT22;11708;50.570;8.532;2023-04-28T09:52:55;11.90;99.90
23081;DHT22;11708;50.570;8.532;2023-04-28T09:55:21;11.90;99.90
23081;DHT22;11708;50.570;8.532;2023-04-28T09:57:48;11.90;99.90
23081;DHT22;11708;50.570;8.532;2023-04-28T10:00:16;12.00;99.90
23081;DHT22;11708;50.570;8.532;2023-04-28T10:02:43;12.00;99.90
23081;DHT22;11708;50.570;8.532;2023-04-28T10:05:09;11.90;99.90
23081;DHT22;11708;50.570;8.532;2023-04-28T10:07:36;12.20;99.90
23081;DHT22;11708;50.570;8.532;2023-04-28T10:10:03;12.20;99.90
23081;DHT22;11708;50.570;8.532;2023-04-28T10:12:29;12.30;99.90
23081;DHT22;11708;50.570;8.532;2023-04-28T10:14:57;12.40;99.90
23081;DHT22;11708;50.570;8.532;2023-04-28T10:17:23;12.50;99.90
23081;DHT22;11708;50.570;8.532;2023-04-28T10:19:52;12.50;99.90
23081;DHT22;11708;50.570;8.532;2023-04-28T10:22:44;12.60;99.90
23081;DHT22;11708;50.570;8.532;2023-04-28T10:25:31;12.50;99.90
23081;DHT22;11708;50.570;8.532;2023-04-28T10:28:03;12.90;99.90
23081;DHT22;11708;50.570;8.532;2023-04-28T10:30:29;13.00;99.90
23081;DHT22;11708;50.570;8.532;2023-04-28T10:35:45;13.20;99.90
23081;DHT22;11708;50.570;8.532;2023-04-28T10:40:51;13.40;99.90
23081;DHT22;11708;50.570;8.532;2023-04-28T10:56:21;13.80;99.90
23081;DHT22;11708;50.570;8.532;2023-04-28T10:58:58;13.90;99.90
23081;DHT22;11708;50.570;8.532;2023-04-28T11:01:28;14.00;99.90
23081;DHT22;11708;50.570;8.532;2023-04-28T11:04:07;14.10;99.90
23081;DHT22;11708;50.570;8.532;2023-04-28T11:06:46;14.20;99.90
23081;DHT22;11708;50.570;8.532;2023-04-28T11:14:29;14.30;99.90
23081;DHT22;11708;50.570;8.532;2023-04-28T11:16:56;14.40;99.90
23081;DHT22;11708;50.570;8.532;2023-04-28T11:19:36;14.50;99.90
23081;DHT22;11708;50.570;8.532;2023-04-28T11:22:04;14.60;99.90
23081;DHT22;11708;50.570;8.532;2023-04-28T11:24:36;14.90;99.90
23081;DHT22;11708;50.570;8.532;2023-04-28T11:27:01;15.20;99.90
23081;DHT22;11708;50.570;8.532;2023-04-28T11:29:37;15.50;99.90
23081;DHT22;11708;50.570;8.532;2023-04-28T11:32:04;15.90;99.90
23081;DHT22;11708;50.570;8.532;2023-04-28T11:34:30;16.20;99.90
23081;DHT22;11708;50.570;8.532;2023-04-28T11:36:56;16.60;99.90
23081;DHT22;11708;50.570;8.532;2023-04-28T11:39:29;16.80;99.90
23081;DHT22;11708;50.570;8.532;2023-04-28T11:41:56;16.90;99.90
23081;DHT22;11708;50.570;8.532;2023-04-28T11:44:24;17.00;99.90
23081;DHT22;11708;50.570;8.532;2023-04-28T11:46:53;17.10;99.90
23081;DHT22;11708;50.570;8.532;2023-04-28T11:49:22;17.30;99.90
23081;DHT22;11708;50.570;8.532;2023-04-28T11:51:57;17.50;99.90
23081;DHT22;11708;50.570;8.532;2023-04-28T11:54:29;17.90;99.90
23081;DHT22;11708;50.570;8.532;2023-04-28T11:56:56;18.10;99.90
23081;DHT22;11708;50.570;8.532;2023-04-28T11:59:27;18.30;99.90
23081;DHT22;11708;50.570;8.532;2023-04-28T12:01:55;18.20;99.90
23081;DHT22;11708;50.570;8.532;2023-04-28T12:04:34;18.30;99.90
23081;DHT22;11708;50.570;8.532;2023-04-28T12:07:14;18.10;99.90
23081;DHT22;11708;50.570;8.532;2023-04-28T12:09:42;18.10;99.90
23081;DHT22;11708;50.570;8.532;2023-04-28T12:12:14;18.10;99.90
23081;DHT22;11708;50.570;8.532;2023-04-28T12:14:55;18.20;99.90
23081;DHT22;11708;50.570;8.532;2023-04-28T12:17:35;18.30;99.90
23081;DHT22;11708;50.570;8.532;2023-04-28T12:20:03;18.20;99.90
23081;DHT22;11708;50.570;8.532;2023-04-28T12:22:29;18.20;99.90
23081;DHT22;11708;50.570;8.532;2023-04-28T12:25:03;18.20;99.90
23081;DHT22;11708;50.570;8.532;2023-04-28T12:27:29;18.10;99.90
23081;DHT22;11708;50.570;8.532;2023-04-28T12:29:55;18.00;99.90
23081;DHT22;11708;50.570;8.532;2023-04-28T12:32:39;18.00;99.90
23081;DHT22;11708;50.570;8.532;2023-04-28T12:35:06;18.10;99.90
23081;DHT22;11708;50.570;8.532;2023-04-28T12:37:31;17.90;99.90
23081;DHT22;11708;50.570;8.532;2023-04-28T12:39:57;18.00;99.90
23081;DHT22;11708;50.570;8.532;2023-04-28T12:42:23;18.20;99.90
23081;DHT22;11708;50.570;8.532;2023-04-28T12:44:49;18.50;99.90
23081;DHT22;11708;50.570;8.532;2023-04-28T12:47:15;19.10;99.90
23081;DHT22;11708;50.570;8.532;2023-04-28T12:49:44;19.70;99.90
23081;DHT22;11708;50.570;8.532;2023-04-28T12:52:11;20.20;99.90
23081;DHT22;11708;50.570;8.532;2023-04-28T12:54:36;20.80;99.90
23081;DHT22;11708;50.570;8.532;2023-04-28T12:57:03;21.00;99.90
23081;DHT22;11708;50.570;8.532;2023-04-28T12:59:30;21.00;99.90
23081;DHT22;11708;50.570;8.532;2023-04-28T13:01:57;21.00;99.90
23081;DHT22;11708;50.570;8.532;2023-04-28T13:04:23;20.80;99.90
23081;DHT22;11708;50.570;8.532;2023-04-28T13:06:48;20.70;99.90
23081;DHT22;11708;50.570;8.532;2023-04-28T13:09:14;20.40;99.90
23081;DHT22;11708;50.570;8.532;2023-04-28T13:11:41;20.30;99.90
23081;DHT22;11708;50.570;8.532;2023-04-28T13:14:07;20.10;99.90
23081;DHT22;11708;50.570;8.532;2023-04-28T13:16:34;19.80;99.90
23081;DHT22;11708;50.570;8.532;2023-04-28T13:19:00;19.50;99.90
23081;DHT22;11708;50.570;8.532;2023-04-28T13:21:26;19.30;99.90
23081;DHT22;11708;50.570;8.532;2023-04-28T13:23:54;19.00;99.90
23081;DHT22;11708;50.570;8.532;2023-04-28T13:26:22;18.90;99.90
23081;DHT22;11708;50.570;8.532;2023-04-28T13:28:51;18.70;99.90
23081;DHT22;11708;50.570;8.532;2023-04-28T13:31:17;18.60;99.90
23081;DHT22;11708;50.570;8.532;2023-04-28T13:33:43;18.70;99.90
23081;DHT22;11708;50.570;8.532;2023-04-28T13:36:08;18.90;99.90
23081;DHT22;11708;50.570;8.532;2023-04-28T13:38:34;19.00;99.90
23081;DHT22;11708;50.570;8.532;2023-04-28T13:41:00;19.30;99.90
23081;DHT22;11708;50.570;8.532;2023-04-28T13:43:26;19.40;99.90
23081;DHT22;11708;50.570;8.532;2023-04-28T13:45:52;19.60;99.90
23081;DHT22;11708;50.570;8.532;2023-04-28T13:48:18;19.70;99.90
23081;DHT22;11708;50.570;8.532;2023-04-28T13:50:44;19.90;99.90
23081;DHT22;11708;50.570;8.532;2023-04-28T13:53:09;19.80;99.90
23081;DHT22;11708;50.570;8.532;2023-04-28T13:55:35;19.80;99.90
23081;DHT22;11708;50.570;8.532;2023-04-28T13:58:01;20.00;99.90
23081;DHT22;11708;50.570;8.532;2023-04-28T14:00:33;20.20;99.90
23081;DHT22;11708;50.570;8.532;2023-04-28T14:02:59;20.60;99.90
23081;DHT22;11708;50.570;8.532;2023-04-28T14:05:26;21.00;99.90
23081;DHT22;11708;50.570;8.532;2023-04-28T14:07:53;21.50;99.90
23081;DHT22;11708;50.570;8.532;2023-04-28T14:10:19;22.00;99.90
23081;DHT22;11708;50.570;8.532;2023-04-28T14:12:45;22.40;99.90
23081;DHT22;11708;50.570;8.532;2023-04-28T14:15:11;23.00;99.90
23081;DHT22;11708;50.570;8.532;2023-04-28T14:17:37;23.30;99.90
23081;DHT22;11708;50.570;8.532;2023-04-28T14:20:03;23.30;99.90
23081;DHT22;11708;50.570;8.532;2023-04-28T14:22:29;22.80;99.90
23081;DHT22;11708;50.570;8.532;2023-04-28T14:24:55;22.50;99.90
23081;DHT22;11708;50.570;8.532;2023-04-28T14:27:21;22.00;99.90
23081;DHT22;11708;50.570;8.532;2023-04-28T14:29:46;21.60;99.90
23081;DHT22;11708;50.570;8.532;2023-04-28T14:32:15;21.20;99.90
23081;DHT22;11708;50.570;8.532;2023-04-28T14:34:45;20.80;99.90
23081;DHT22;11708;50.570;8.532;2023-04-28T14:37:11;20.30;99.90
23081;DHT22;11708;50.570;8.532;2023-04-28T14:39:37;20.00;99.90
23081;DHT22;11708;50.570;8.532;2023-04-28T14:42:04;19.70;99.90
23081;DHT22;11708;50.570;8.532;2023-04-28T14:44:30;19.50;99.90
23081;DHT22;11708;50.570;8.532;2023-04-28T14:46:55;19.40;99.90
23081;DHT22;11708;50.570;8.532;2023-04-28T14:49:21;19.50;99.90
23081;DHT22;11708;50.570;8.532;2023-04-28T14:51:48;19.80;99.90
23081;DHT22;11708;50.570;8.532;2023-04-28T14:54:14;20.20;99.90
23081;DHT22;11708;50.570;8.532;2023-04-28T14:56:39;20.70;99.90
23081;DHT22;11708;50.570;8.532;2023-04-28T14:59:05;21.00;99.90
23081;DHT22;11708;50.570;8.532;2023-04-28T15:01:31;21.10;99.90
23081;DHT22;11708;50.570;8.532;2023-04-28T15:03:56;21.10;99.90
23081;DHT22;11708;50.570;8.532;2023-04-28T15:06:22;21.00;99.90
23081;DHT22;11708;50.570;8.532;2023-04-28T15:08:48;20.80;99.90
23081;DHT22;11708;50.570;8.532;2023-04-28T15:11:15;20.50;99.90
23081;DHT22;11708;50.570;8.532;2023-04-28T15:13:40;20.30;99.90
23081;DHT22;11708;50.570;8.532;2023-04-28T15:16:07;20.10;99.90
23081;DHT22;11708;50.570;8.532;2023-04-28T15:18:32;19.80;99.90
23081;DHT22;11708;50.570;8.532;2023-04-28T15:20:59;19.60;99.90
23081;DHT22;11708;50.570;8.532;2023-04-28T15:23:25;19.30;99.90
23081;DHT22;11708;50.570;8.532;2023-04-28T15:25:50;19.20;99.90
23081;DHT22;11708;50.570;8.532;2023-04-28T15:28:18;19.00;99.90
23081;DHT22;11708;50.570;8.532;2023-04-28T15:30:43;18.80;99.90
23081;DHT22;11708;50.570;8.532;2023-04-28T15:33:09;18.70;99.90
23081;DHT22;11708;50.570;8.532;2023-04-28T15:35:41;18.70;99.90
23081;DHT22;11708;50.570;8.532;2023-04-28T15:38:07;18.60;99.90
23081;DHT22;11708;50.570;8.532;2023-04-28T15:40:33;18.50;99.90
23081;DHT22;11708;50.570;8.532;2023-04-28T15:43:00;18.50;99.90
23081;DHT22;11708;50.570;8.532;2023-04-28T15:45:27;18.50;99.90
23081;DHT22;11708;50.570;8.532;2023-04-28T15:47:52;18.70;99.90
23081;DHT22;11708;50.570;8.532;2023-04-28T15:50:21;18.80;99.90
23081;DHT22;11708;50.570;8.532;2023-04-28T15:52:47;18.90;99.90